createdAt,value
2019-04-04T00:00:34.860Z,99238.58
2019-04-04T00:03:04.310Z,99225.75
2019-04-04T00:05:33.713Z,99216.28
2019-04-04T00:08:02.961Z,99208.15
2019-04-04T00:10:32.871Z,99206.05
2019-04-04T00:13:03.606Z,99211.20
2019-04-04T00:15:32.958Z,99214.17
2019-04-04T00:18:02.320Z,99210.90
2019-04-04T00:20:32.408Z,99201.31
2019-04-04T00:23:01.812Z,99194.66
2019-04-04T00:25:31.438Z,99178.41
2019-04-04T00:28:00.718Z,99168.00
2019-04-04T00:30:30.147Z,99191.54
2019-04-04T00:32:59.450Z,99190.76
2019-04-04T00:35:30.759Z,99194.00
2019-04-04T00:37:59.772Z,99197.52
2019-04-04T00:40:29.189Z,99185.63
2019-04-04T00:43:01.193Z,99183.00
2019-04-04T00:45:30.846Z,99171.34
2019-04-04T00:48:01.106Z,99154.33
2019-04-04T00:50:31.169Z,99143.66
2019-04-04T00:53:00.708Z,99132.20
2019-04-04T00:55:29.975Z,99120.73
2019-04-04T00:57:59.258Z,99123.73
2019-04-04T01:00:28.461Z,99148.45
2019-04-04T01:02:58.585Z,99163.64
2019-04-04T01:05:28.251Z,99187.59
2019-04-04T01:07:57.601Z,99189.12
2019-04-04T01:10:27.590Z,99173.69
2019-04-04T01:12:57.010Z,99178.00
2019-04-04T01:15:26.388Z,99179.17
2019-04-04T01:17:55.779Z,99173.75
2019-04-04T01:20:25.164Z,99160.73
2019-04-04T01:22:56.140Z,99155.42
2019-04-04T01:25:25.540Z,99153.50
2019-04-04T01:27:54.900Z,99151.08
2019-04-04T01:30:24.108Z,99134.31
2019-04-04T01:32:53.488Z,99144.55
2019-04-04T01:35:23.310Z,99161.46
2019-04-04T01:37:52.810Z,99159.23
2019-04-04T01:40:22.164Z,99147.70
2019-04-04T01:42:51.542Z,99144.46
2019-04-04T01:45:20.764Z,99153.17
2019-04-04T01:47:50.011Z,99158.17
2019-04-04T01:50:22.467Z,99150.88
2019-04-04T01:52:50.701Z,99151.77
2019-04-04T01:55:22.067Z,99161.97
2019-04-04T01:57:51.351Z,99156.51
2019-04-04T02:00:20.955Z,99152.33
2019-04-04T02:02:51.926Z,99147.52
2019-04-04T02:05:26.730Z,99143.77
2019-04-04T02:07:54.595Z,99136.06
2019-04-04T02:10:23.880Z,99138.59
2019-04-04T02:12:53.119Z,99137.39
2019-04-04T02:15:22.376Z,99140.50
2019-04-04T02:17:52.912Z,99125.05
2019-04-04T02:20:22.744Z,99110.43
2019-04-04T02:22:52.022Z,99115.59
2019-04-04T02:25:21.300Z,99110.98
2019-04-04T02:27:50.538Z,99098.08
2019-04-04T02:30:19.847Z,99102.33
2019-04-04T02:32:49.235Z,99100.20
2019-04-04T02:35:18.500Z,99100.47
2019-04-04T02:37:47.905Z,99105.78
2019-04-04T02:40:17.308Z,99096.95
2019-04-04T02:42:46.551Z,99102.63
2019-04-04T02:45:15.864Z,99103.66
2019-04-04T02:47:45.127Z,99107.36
2019-04-04T02:50:14.498Z,99100.64
2019-04-04T02:52:46.203Z,99102.09
2019-04-04T02:55:14.980Z,99099.13
2019-04-04T02:57:44.367Z,99100.45
2019-04-04T03:00:14.030Z,99086.19
2019-04-04T03:02:43.372Z,99088.24
2019-04-04T03:05:12.652Z,99084.67
2019-04-04T03:07:42.358Z,99078.47
2019-04-04T03:10:15.193Z,99079.81
2019-04-04T03:12:42.632Z,99077.89
2019-04-04T03:15:11.956Z,99077.50
2019-04-04T03:17:41.254Z,99087.30
2019-04-04T03:20:11.078Z,99106.45
2019-04-04T03:22:40.861Z,99122.94
2019-04-04T03:25:14.205Z,99101.73
2019-04-04T03:27:42.645Z,99080.03
2019-04-04T03:30:14.444Z,99090.12
2019-04-04T03:32:43.185Z,99106.91
2019-04-04T03:35:12.598Z,99117.50
2019-04-04T03:37:42.001Z,99129.23
2019-04-04T03:40:13.805Z,99124.44
2019-04-04T03:42:44.350Z,99125.26
2019-04-04T03:45:14.140Z,99132.28
2019-04-04T03:47:44.684Z,99142.17
2019-04-04T03:50:14.534Z,99148.08
2019-04-04T03:52:44.659Z,99139.63
2019-04-04T03:55:14.159Z,99129.42
2019-04-04T03:57:43.391Z,99114.76
2019-04-04T04:00:22.431Z,99109.65
2019-04-04T04:02:53.239Z,99091.12
2019-04-04T04:05:27.065Z,99068.42
2019-04-04T04:07:56.407Z,99076.05
2019-04-04T04:10:25.727Z,99088.70
2019-04-04T04:12:54.948Z,99083.11
2019-04-04T04:15:24.228Z,99087.38
2019-04-04T04:17:53.490Z,99103.19
2019-04-04T04:20:22.782Z,99116.82
2019-04-04T04:22:52.052Z,99107.95
2019-04-04T04:25:21.329Z,99101.04
2019-04-04T04:27:51.075Z,99109.69
2019-04-04T04:30:20.299Z,99110.41
2019-04-04T04:32:49.672Z,99101.23
2019-04-04T04:35:19.038Z,99097.60
2019-04-04T04:37:52.328Z,99086.81
2019-04-04T04:40:19.361Z,99081.09
2019-04-04T04:42:48.608Z,99093.30
2019-04-04T04:45:17.923Z,99105.61
2019-04-04T04:47:47.276Z,99096.98
2019-04-04T04:50:18.036Z,99095.66
2019-04-04T04:52:47.715Z,99084.05
2019-04-04T04:55:17.117Z,99081.71
2019-04-04T04:57:46.587Z,99082.11
2019-04-04T05:00:16.685Z,99078.55
2019-04-04T05:02:46.308Z,99075.00
2019-04-04T05:05:15.761Z,99083.83
2019-04-04T05:07:46.434Z,99082.33
2019-04-04T05:10:15.851Z,99074.38
2019-04-04T05:12:45.201Z,99069.81
2019-04-04T05:15:14.608Z,99082.12
2019-04-04T05:17:43.921Z,99078.75
2019-04-04T05:20:13.389Z,99076.11
2019-04-04T05:22:42.671Z,99077.85
2019-04-04T05:25:12.079Z,99079.55
2019-04-04T05:27:41.473Z,99086.65
2019-04-04T05:30:10.889Z,99088.87
2019-04-04T05:32:40.365Z,99083.64
2019-04-04T05:35:09.738Z,99085.02
2019-04-04T05:37:39.540Z,99078.54
2019-04-04T05:40:09.844Z,99072.68
2019-04-04T05:42:39.138Z,99065.36
2019-04-04T05:45:08.807Z,99080.11
2019-04-04T05:47:38.179Z,99102.05
2019-04-04T05:50:11.123Z,99103.90
2019-04-04T05:52:38.840Z,99099.84
2019-04-04T05:55:10.256Z,99097.52
2019-04-04T05:57:39.210Z,99114.69
2019-04-04T06:00:11.737Z,99122.56
2019-04-04T06:02:43.133Z,99127.30
2019-04-04T06:05:12.095Z,99117.65
2019-04-04T06:07:41.476Z,99113.59
2019-04-04T06:10:12.115Z,99114.88
2019-04-04T06:12:41.730Z,99125.36
2019-04-04T06:15:11.042Z,99134.66
2019-04-04T06:17:40.325Z,99139.47
2019-04-04T06:20:11.115Z,99113.91
2019-04-04T06:22:40.542Z,99108.52
2019-04-04T06:25:10.077Z,99105.78
2019-04-04T06:27:40.275Z,99123.36
2019-04-04T06:30:10.419Z,99131.19
2019-04-04T06:32:39.828Z,99131.66
2019-04-04T06:35:09.664Z,99125.16
2019-04-04T06:37:39.049Z,99127.67
2019-04-04T06:40:08.668Z,99120.91
2019-04-04T06:42:37.904Z,99122.66
2019-04-04T06:45:07.529Z,99128.88
2019-04-04T06:47:36.794Z,99119.30
2019-04-04T06:50:08.467Z,99084.86
2019-04-04T06:52:38.168Z,99092.84
2019-04-04T06:55:07.770Z,99119.17
2019-04-04T06:57:37.679Z,99140.08
2019-04-04T07:00:09.220Z,99136.24
2019-04-04T07:02:38.662Z,99152.27
2019-04-04T07:05:10.514Z,99157.08
2019-04-04T07:07:43.129Z,99158.61
2019-04-04T07:10:11.817Z,99154.94
2019-04-04T07:12:41.187Z,99152.42
2019-04-04T07:15:12.549Z,99149.41
2019-04-04T07:17:41.874Z,99157.16
2019-04-04T07:20:11.373Z,99157.01
2019-04-04T07:22:40.745Z,99168.89
2019-04-04T07:25:10.968Z,99177.69
2019-04-04T07:27:40.360Z,99182.85
2019-04-04T07:30:09.988Z,99184.34
2019-04-04T07:32:41.553Z,99177.84
2019-04-04T07:35:10.338Z,99187.08
2019-04-04T07:37:39.680Z,99173.92
2019-04-04T07:40:09.079Z,99180.95
2019-04-04T07:42:40.283Z,99184.78
2019-04-04T07:45:09.891Z,99183.77
2019-04-04T07:47:39.225Z,99181.09
2019-04-04T07:50:08.952Z,99176.20
2019-04-04T07:52:38.457Z,99178.13
2019-04-04T07:55:10.061Z,99181.06
2019-04-04T07:57:39.145Z,99185.52
2019-04-04T08:00:09.041Z,99195.41
2019-04-04T08:02:38.336Z,99204.28
2019-04-04T08:05:08.297Z,99204.39
2019-04-04T08:07:37.526Z,99211.69
2019-04-04T08:10:19.509Z,99206.22
2019-04-04T08:12:38.270Z,99206.50
2019-04-04T08:15:08.005Z,99209.68
2019-04-04T08:17:37.423Z,99217.14
2019-04-04T08:20:06.956Z,99207.30
2019-04-04T08:22:39.593Z,99206.35
2019-04-04T08:25:07.485Z,99211.09
2019-04-04T08:27:36.765Z,99217.38
2019-04-04T08:30:06.854Z,99216.05
2019-04-04T08:32:36.176Z,99214.92
2019-04-04T08:35:06.385Z,99220.91
2019-04-04T08:37:35.773Z,99213.74
2019-04-04T08:40:05.790Z,99221.29
2019-04-04T08:42:35.264Z,99222.23
2019-04-04T08:45:04.959Z,99226.61
2019-04-04T08:47:34.314Z,99235.03
2019-04-04T08:50:03.722Z,99229.86
2019-04-04T08:52:32.979Z,99232.16
2019-04-04T08:55:02.369Z,99234.48
2019-04-04T08:57:31.677Z,99232.39
2019-04-04T09:00:01.071Z,99240.09
2019-04-04T09:02:30.452Z,99239.66
2019-04-04T09:05:11.129Z,99226.34
2019-04-04T09:07:30.822Z,99234.69
2019-04-04T09:10:00.243Z,99230.09
2019-04-04T09:12:29.518Z,99237.09
2019-04-04T09:14:58.927Z,99240.67
2019-04-04T09:17:28.146Z,99235.26
2019-04-04T09:19:57.482Z,99229.08
2019-04-04T09:22:26.800Z,99230.55
2019-04-04T09:24:56.058Z,99252.30
2019-04-04T09:27:25.379Z,99243.29
2019-04-04T09:29:54.622Z,99236.80
2019-04-04T09:32:23.939Z,99232.73
2019-04-04T09:34:53.219Z,99234.98
2019-04-04T09:37:22.501Z,99242.61
2019-04-04T09:39:51.879Z,99244.14
2019-04-04T09:42:21.238Z,99248.33
2019-04-04T09:44:50.540Z,99245.93
2019-04-04T09:47:20.017Z,99232.92
2019-04-04T09:49:49.322Z,99226.56
2019-04-04T09:52:18.637Z,99229.67
2019-04-04T09:54:48.060Z,99226.81
2019-04-04T09:57:17.347Z,99232.31
2019-04-04T09:59:46.701Z,99237.50
2019-04-04T10:02:16.123Z,99232.40
2019-04-04T10:04:45.892Z,99225.05
2019-04-04T10:07:15.246Z,99228.28
2019-04-04T10:09:44.584Z,99233.14
2019-04-04T10:12:13.859Z,99238.37
2019-04-04T10:14:43.125Z,99231.33
2019-04-04T10:17:12.470Z,99231.84
2019-04-04T10:19:41.799Z,99227.88
2019-04-04T10:22:11.297Z,99224.50
2019-04-04T10:24:40.749Z,99231.95
2019-04-04T10:27:10.093Z,99230.97
2019-04-04T10:29:39.338Z,99243.56
2019-04-04T10:32:08.653Z,99241.95
2019-04-04T10:34:38.955Z,99236.72
2019-04-04T10:37:08.237Z,99230.00
2019-04-04T10:39:37.463Z,99235.88
2019-04-04T10:42:06.763Z,99234.69
2019-04-04T10:44:37.237Z,99236.66
2019-04-04T10:47:06.790Z,99233.11
2019-04-04T10:49:36.150Z,99241.12
2019-04-04T10:52:05.546Z,99231.91
2019-04-04T10:54:34.789Z,99234.33
2019-04-04T10:57:04.141Z,99238.42
2019-04-04T10:59:33.472Z,99237.59
2019-04-04T11:02:02.726Z,99234.95
2019-04-04T11:04:32.106Z,99234.94
2019-04-04T11:07:01.593Z,99244.84
2019-04-04T11:09:41.385Z,99242.62
2019-04-04T11:12:01.949Z,99245.98
2019-04-04T11:14:31.348Z,99233.65
2019-04-04T11:17:00.649Z,99238.27
2019-04-04T11:19:31.417Z,99236.56
2019-04-04T11:22:00.942Z,99230.87
2019-04-04T11:24:30.330Z,99216.78
2019-04-04T11:26:59.593Z,99222.39
2019-04-04T11:29:28.867Z,99203.61
2019-04-04T11:31:58.613Z,99207.19
2019-04-04T11:34:28.002Z,99213.77
2019-04-04T11:36:57.270Z,99208.73
2019-04-04T11:39:26.595Z,99231.36
2019-04-04T11:41:55.776Z,99238.90
2019-04-04T11:44:25.038Z,99247.52
2019-04-04T11:46:54.347Z,99240.29
2019-04-04T11:49:23.658Z,99245.91
2019-04-04T11:51:52.954Z,99237.20
2019-04-04T11:54:22.379Z,99248.36
2019-04-04T11:56:51.647Z,99246.95
2019-04-04T11:59:21.062Z,99256.79
2019-04-04T12:01:50.417Z,99260.35
2019-04-04T12:04:19.838Z,99254.31
2019-04-04T12:06:49.096Z,99259.03
2019-04-04T12:09:18.465Z,99259.72
2019-04-04T12:11:47.779Z,99262.83
2019-04-04T12:14:17.122Z,99266.08
2019-04-04T12:16:46.453Z,99262.86
2019-04-04T12:19:15.982Z,99269.86
2019-04-04T12:21:45.256Z,99268.11
2019-04-04T12:24:14.669Z,99269.64
2019-04-04T12:26:43.967Z,99269.19
2019-04-04T12:29:13.261Z,99274.25
2019-04-04T12:31:42.657Z,99277.94
2019-04-04T12:34:14.128Z,99298.94
2019-04-04T12:36:43.366Z,99302.87
2019-04-04T12:39:12.706Z,99308.30
2019-04-04T12:41:41.956Z,99304.54
2019-04-04T12:44:11.345Z,99306.73
2019-04-04T12:46:42.525Z,99301.49
2019-04-04T12:49:11.654Z,99286.44
2019-04-04T12:51:41.002Z,99290.44
2019-04-04T12:54:10.443Z,99274.50
2019-04-04T12:56:39.756Z,99277.34
2019-04-04T12:59:09.073Z,99282.06
2019-04-04T13:01:38.390Z,99286.20
2019-04-04T13:04:07.717Z,99272.44
2019-04-04T13:06:37.184Z,99265.19
2019-04-04T13:09:08.351Z,99268.91
2019-04-04T13:11:37.828Z,99265.64
2019-04-04T13:14:07.326Z,99262.50
2019-04-04T13:16:36.771Z,99264.17
2019-04-04T13:19:06.100Z,99279.58
2019-04-04T13:21:35.350Z,99278.07
2019-04-04T13:24:04.677Z,99276.92
2019-04-04T13:26:33.963Z,99276.25
2019-04-04T13:29:03.197Z,99275.67
2019-04-04T13:31:32.502Z,99268.13
2019-04-04T13:34:01.740Z,99265.21
2019-04-04T13:36:31.308Z,99258.20
2019-04-04T13:39:00.559Z,99256.78
2019-04-04T13:41:29.821Z,99254.83
2019-04-04T13:43:59.167Z,99261.19
2019-04-04T13:46:29.393Z,99268.13
2019-04-04T13:48:58.714Z,99274.78
2019-04-04T13:51:27.989Z,99273.31
2019-04-04T13:53:57.374Z,99288.06
2019-04-04T13:56:29.116Z,99294.22
2019-04-04T13:59:01.167Z,99308.14
2019-04-04T14:01:28.680Z,99320.10
2019-04-04T14:03:57.994Z,99330.67
2019-04-04T14:06:27.342Z,99330.75
2019-04-04T14:08:56.624Z,99332.74
2019-04-04T14:11:25.955Z,99344.73
2019-04-04T14:13:55.533Z,99346.14
2019-04-04T14:16:25.171Z,99352.02
2019-04-04T14:18:54.598Z,99347.59
2019-04-04T14:21:23.838Z,99351.51
2019-04-04T14:23:53.197Z,99348.10
2019-04-04T14:26:26.045Z,99353.81
2019-04-04T14:28:55.447Z,99352.02
2019-04-04T14:31:24.861Z,99346.70
2019-04-04T14:33:54.257Z,99332.13
2019-04-04T14:36:23.547Z,99332.83
2019-04-04T14:38:52.950Z,99339.91
2019-04-04T14:41:22.249Z,99354.36
2019-04-04T14:43:51.573Z,99350.72
2019-04-04T14:46:20.930Z,99345.09
2019-04-04T14:48:50.383Z,99356.79
2019-04-04T14:51:19.811Z,99360.04
2019-04-04T14:53:49.201Z,99367.99
2019-04-04T14:56:18.704Z,99370.06
2019-04-04T14:58:48.755Z,99368.57
2019-04-04T15:01:18.117Z,99366.34
2019-04-04T15:03:47.534Z,99360.59
2019-04-04T15:06:16.922Z,99358.52
2019-04-04T15:08:46.266Z,99353.94
2019-04-04T15:11:24.035Z,99349.00
2019-04-04T15:13:46.777Z,99342.27
2019-04-04T15:16:18.510Z,99343.88
2019-04-04T15:18:48.349Z,99360.90
2019-04-04T15:21:17.946Z,99369.78
2019-04-04T15:23:47.835Z,99374.64
2019-04-04T15:26:17.314Z,99371.98
2019-04-04T15:28:46.622Z,99380.28
2019-04-04T15:31:16.181Z,99392.09
2019-04-04T15:33:45.841Z,99402.52
2019-04-04T15:36:16.312Z,99399.66
2019-04-04T15:38:45.719Z,99404.91
2019-04-04T15:41:15.288Z,99413.16
2019-04-04T15:43:46.087Z,99414.00
2019-04-04T15:46:16.639Z,99415.41
2019-04-04T15:48:46.181Z,99416.97
2019-04-04T15:51:15.654Z,99424.02
2019-04-04T15:53:45.354Z,99410.05
2019-04-04T15:56:20.796Z,99396.02
2019-04-04T15:58:50.336Z,99384.94
2019-04-04T16:01:19.870Z,99383.64
2019-04-04T16:03:49.301Z,99382.31
2019-04-04T16:06:18.826Z,99386.38
2019-04-04T16:08:48.392Z,99400.19
2019-04-04T16:11:20.069Z,99400.78
2019-04-04T16:13:49.633Z,99407.00
2019-04-04T16:16:19.265Z,99420.19
2019-04-04T16:18:48.917Z,99418.12
2019-04-04T16:21:18.451Z,99422.20
2019-04-04T16:23:47.902Z,99429.13
2019-04-04T16:26:18.771Z,99418.55
2019-04-04T16:28:48.338Z,99421.87
2019-04-04T16:31:17.913Z,99417.56
2019-04-04T16:33:47.580Z,99409.81
2019-04-04T16:36:17.116Z,99408.48
2019-04-04T16:38:46.626Z,99425.35
2019-04-04T16:41:16.181Z,99433.45
2019-04-04T16:43:45.691Z,99440.08
2019-04-04T16:46:15.437Z,99454.09
2019-04-04T16:48:44.981Z,99464.13
2019-04-04T16:51:14.530Z,99466.38
2019-04-04T16:53:44.134Z,99457.57
2019-04-04T16:56:13.965Z,99444.66
2019-04-04T16:58:43.582Z,99453.01
2019-04-04T17:01:13.090Z,99457.09
2019-04-04T17:03:42.626Z,99455.13
2019-04-04T17:06:14.667Z,99469.12
2019-04-04T17:08:44.301Z,99469.86
2019-04-04T17:11:13.964Z,99469.86
2019-04-04T17:13:43.682Z,99465.05
2019-04-04T17:16:13.414Z,99474.13
2019-04-04T17:18:43.634Z,99483.02
2019-04-04T17:21:13.235Z,99484.35
2019-04-04T17:23:42.867Z,99473.20
2019-04-04T17:26:12.766Z,99469.28
2019-04-04T17:28:42.570Z,99464.98
2019-04-04T17:31:12.498Z,99458.24
2019-04-04T17:33:42.389Z,99466.23
2019-04-04T17:36:12.224Z,99456.04
2019-04-04T17:38:41.844Z,99449.73
2019-04-04T17:41:11.430Z,99444.94
2019-04-04T17:43:41.504Z,99444.92
2019-04-04T17:46:11.467Z,99446.08
2019-04-04T17:48:41.259Z,99450.63
2019-04-04T17:51:11.164Z,99461.38
2019-04-04T17:53:40.906Z,99472.55
2019-04-04T17:56:22.802Z,99483.70
2019-04-04T17:58:52.417Z,99492.19
2019-04-04T18:01:22.155Z,99495.16
2019-04-04T18:03:51.881Z,99500.67
2019-04-04T18:06:21.734Z,99497.82
2019-04-04T18:08:51.825Z,99505.07
2019-04-04T18:11:21.647Z,99504.02
2019-04-04T18:13:51.289Z,99511.41
2019-04-04T18:16:21.069Z,99507.92
2019-04-04T18:18:51.636Z,99509.06
2019-04-04T18:21:21.481Z,99510.89
2019-04-04T18:23:51.146Z,99510.16
2019-04-04T18:26:21.962Z,99516.70
2019-04-04T18:28:51.729Z,99523.36
2019-04-04T18:31:21.309Z,99530.71
2019-04-04T18:33:51.008Z,99532.77
2019-04-04T18:36:20.890Z,99539.73
2019-04-04T18:38:51.507Z,99533.27
2019-04-04T18:41:21.317Z,99532.04
2019-04-04T18:43:51.475Z,99535.84
2019-04-04T18:46:21.218Z,99537.09
2019-04-04T18:48:51.329Z,99537.82
2019-04-04T18:51:20.985Z,99537.45
2019-04-04T18:53:50.728Z,99536.22
2019-04-04T18:56:20.455Z,99532.73
2019-04-04T18:58:50.208Z,99530.30
2019-04-04T19:01:20.984Z,99542.14
2019-04-04T19:03:50.662Z,99546.25
2019-04-04T19:06:20.297Z,99546.57
2019-04-04T19:08:50.848Z,99557.08
2019-04-04T19:11:20.822Z,99574.05
2019-04-04T19:13:50.544Z,99578.77
2019-04-04T19:16:20.274Z,99576.84
2019-04-04T19:18:49.917Z,99573.16
2019-04-04T19:21:20.017Z,99573.16
2019-04-04T19:23:49.824Z,99574.59
2019-04-04T19:26:20.104Z,99568.55
2019-04-04T19:28:50.152Z,99575.73
2019-04-04T19:31:20.027Z,99575.73
2019-04-04T19:33:49.774Z,99575.82
2019-04-04T19:36:19.872Z,99571.30
2019-04-04T19:38:49.514Z,99574.05
2019-04-04T19:41:19.193Z,99582.25
2019-04-04T19:43:49.233Z,99586.45
2019-04-04T19:46:19.068Z,99590.73
2019-04-04T19:48:48.789Z,99594.81
2019-04-04T19:51:18.404Z,99600.95
2019-04-04T19:53:48.710Z,99599.31
2019-04-04T19:56:20.767Z,99597.47
2019-04-04T19:58:50.671Z,99602.61
2019-04-04T20:01:20.213Z,99610.17
2019-04-04T20:03:49.838Z,99613.66
2019-04-04T20:06:19.452Z,99612.61
2019-04-04T20:08:53.289Z,99605.27
2019-04-04T20:11:20.521Z,99606.28
2019-04-04T20:13:50.153Z,99613.23
2019-04-04T20:16:19.827Z,99623.88
2019-04-04T20:18:49.547Z,99622.84
2019-04-04T20:21:19.152Z,99619.89
2019-04-04T20:23:50.348Z,99616.91
2019-04-04T20:26:19.943Z,99608.94
2019-04-04T20:28:49.632Z,99616.19
2019-04-04T20:31:19.278Z,99618.12
2019-04-04T20:34:00.621Z,99626.73
2019-04-04T20:36:20.235Z,99622.61
2019-04-04T20:38:49.945Z,99616.19
2019-04-04T20:41:19.477Z,99608.11
2019-04-04T20:43:49.072Z,99607.80
2019-04-04T20:46:18.739Z,99619.77
2019-04-04T20:48:48.760Z,99614.45
2019-04-04T20:51:18.235Z,99602.16
2019-04-04T20:53:47.813Z,99611.47
2019-04-04T20:56:17.522Z,99613.72
2019-04-04T20:58:47.049Z,99623.66
2019-04-04T21:01:16.709Z,99621.09
2019-04-04T21:03:46.274Z,99617.61
2019-04-04T21:06:15.632Z,99607.80
2019-04-04T21:08:45.139Z,99615.05
2019-04-04T21:11:14.757Z,99612.20
2019-04-04T21:13:55.523Z,99618.84
2019-04-04T21:16:15.652Z,99617.52
2019-04-04T21:18:45.029Z,99617.80
2019-04-04T21:21:14.301Z,99619.35
2019-04-04T21:23:43.570Z,99628.85
2019-04-04T21:26:12.969Z,99629.99
2019-04-04T21:28:42.321Z,99635.31
2019-04-04T21:31:11.635Z,99637.05
2019-04-04T21:33:41.053Z,99638.60
2019-04-04T21:36:10.481Z,99645.76
2019-04-04T21:38:39.841Z,99656.08
2019-04-04T21:41:09.319Z,99653.73
2019-04-04T21:43:38.661Z,99649.24
2019-04-04T21:46:07.940Z,99654.84
2019-04-04T21:48:37.374Z,99652.91
2019-04-04T21:51:06.637Z,99658.14
2019-04-04T21:53:36.006Z,99658.45
2019-04-04T21:56:05.301Z,99651.17
2019-04-04T21:58:34.628Z,99655.80
2019-04-04T22:01:04.473Z,99660.48
2019-04-04T22:03:36.546Z,99665.52
2019-04-04T22:06:04.956Z,99671.97
2019-04-04T22:08:34.320Z,99684.22
2019-04-04T22:11:03.768Z,99678.30
2019-04-04T22:13:33.008Z,99666.84
2019-04-04T22:16:02.422Z,99667.98
2019-04-04T22:18:32.061Z,99667.27
2019-04-04T22:21:01.476Z,99669.39
2019-04-04T22:23:30.766Z,99670.03
2019-04-04T22:26:00.092Z,99670.03
2019-04-04T22:28:29.512Z,99670.22
2019-04-04T22:30:59.117Z,99673.20
2019-04-04T22:33:28.441Z,99666.64
2019-04-04T22:35:57.819Z,99671.64
2019-04-04T22:38:27.093Z,99672.25
2019-04-04T22:40:56.452Z,99675.45
2019-04-04T22:43:25.788Z,99678.01
2019-04-04T22:45:55.157Z,99680.86
2019-04-04T22:48:24.472Z,99682.41
2019-04-04T22:50:55.068Z,99680.03
2019-04-04T22:53:24.411Z,99688.01
2019-04-04T22:55:53.787Z,99693.23
2019-04-04T22:58:28.420Z,99694.55
2019-04-04T23:00:54.088Z,99696.52
2019-04-04T23:03:25.322Z,99697.31
2019-04-04T23:05:54.557Z,99708.27
2019-04-04T23:08:23.877Z,99710.93
2019-04-04T23:10:53.147Z,99711.66
2019-04-04T23:13:22.434Z,99714.31
2019-04-04T23:15:51.814Z,99707.95
2019-04-04T23:18:21.111Z,99710.11
2019-04-04T23:20:50.453Z,99715.64
2019-04-04T23:23:19.806Z,99707.66
2019-04-04T23:25:49.072Z,99702.63
2019-04-04T23:28:18.848Z,99710.93
2019-04-04T23:30:48.112Z,99713.59
2019-04-04T23:33:17.474Z,99704.06
2019-04-04T23:35:46.679Z,99708.16
2019-04-04T23:38:16.099Z,99714.20
2019-04-04T23:40:45.370Z,99703.56
2019-04-04T23:43:14.834Z,99698.84
2019-04-04T23:45:44.132Z,99697.23
2019-04-04T23:48:13.561Z,99705.48
2019-04-04T23:50:42.891Z,99709.20
2019-04-04T23:53:12.269Z,99706.53
2019-04-04T23:55:41.633Z,99711.25
2019-04-04T23:58:11.024Z,99713.69
